createdAt,value
2023-03-06T00:01:00.466Z,3.46
2023-03-06T00:03:28.557Z,3.41
2023-03-06T00:05:58.751Z,3.37
2023-03-06T00:08:29.117Z,3.36
2023-03-06T00:10:57.937Z,3.35
2023-03-06T00:13:26.778Z,3.34
2023-03-06T00:15:54.617Z,3.32
2023-03-06T00:18:22.193Z,3.32
2023-03-06T00:20:49.614Z,3.32
2023-03-06T00:23:17.302Z,3.30
2023-03-06T00:25:46.385Z,3.29
2023-03-06T00:28:15.793Z,3.27
2023-03-06T00:30:46.074Z,3.22
2023-03-06T00:33:13.662Z,3.20
2023-03-06T00:35:41.940Z,3.20
2023-03-06T00:38:12.095Z,3.20
2023-03-06T00:40:39.703Z,3.17
2023-03-06T00:43:07.407Z,3.15
2023-03-06T00:45:36.317Z,3.13
2023-03-06T00:48:04.706Z,3.14
2023-03-06T00:50:32.509Z,3.13
2023-03-06T00:53:01.014Z,3.13
2023-03-06T00:55:29.497Z,3.12
2023-03-06T00:57:57.086Z,3.08
2023-03-06T01:00:25.873Z,3.06
2023-03-06T01:02:53.739Z,3.06
2023-03-06T01:05:23.004Z,3.03
2023-03-06T01:07:50.639Z,3.00
2023-03-06T01:10:18.396Z,2.96
2023-03-06T01:12:46.042Z,2.92
2023-03-06T01:15:14.335Z,2.90
2023-03-06T01:17:41.941Z,2.86
2023-03-06T01:20:14.462Z,2.84
2023-03-06T01:22:42.918Z,2.80
2023-03-06T01:25:12.034Z,2.80
2023-03-06T01:27:39.591Z,2.79
2023-03-06T01:30:08.286Z,2.77
2023-03-06T01:32:35.818Z,2.74
2023-03-06T01:35:03.916Z,2.75
2023-03-06T01:37:31.806Z,2.74
2023-03-06T01:39:59.250Z,2.76
2023-03-06T01:42:26.774Z,2.75
2023-03-06T01:45:35.097Z,2.76
2023-03-06T01:48:02.682Z,2.72
2023-03-06T01:50:30.386Z,2.73
2023-03-06T01:53:00.944Z,2.73
2023-03-06T01:55:34.700Z,2.72
2023-03-06T01:58:09.090Z,2.67
2023-03-06T02:00:37.868Z,2.64
2023-03-06T02:03:21.591Z,2.60
2023-03-06T02:05:49.151Z,2.54
2023-03-06T02:08:21.611Z,2.52
2023-03-06T02:11:02.764Z,2.50
2023-03-06T02:13:31.129Z,2.45
2023-03-06T02:15:59.340Z,2.42
2023-03-06T02:18:29.392Z,2.40
2023-03-06T02:21:06.481Z,2.39
2023-03-06T02:24:12.679Z,2.37
2023-03-06T02:26:43.273Z,2.30
2023-03-06T02:29:11.498Z,2.27
2023-03-06T02:31:39.175Z,2.25
2023-03-06T02:34:16.094Z,2.23
2023-03-06T02:36:48.854Z,2.22
2023-03-06T02:39:23.827Z,2.20
2023-03-06T02:41:51.532Z,2.17
2023-03-06T02:44:24.092Z,2.16
2023-03-06T02:46:51.699Z,2.13
2023-03-06T02:49:19.357Z,2.13
2023-03-06T02:51:46.807Z,2.10
2023-03-06T02:54:14.623Z,2.09
2023-03-06T02:56:43.332Z,2.06
2023-03-06T02:59:12.339Z,2.03
2023-03-06T03:01:40.644Z,2.01
2023-03-06T03:04:08.953Z,1.99
2023-03-06T03:06:37.158Z,1.98
2023-03-06T03:09:05.002Z,1.97
2023-03-06T03:11:32.513Z,1.95
2023-03-06T03:14:00.657Z,1.93
2023-03-06T03:16:29.495Z,1.92
2023-03-06T03:18:59.450Z,1.91
2023-03-06T03:21:28.198Z,1.89
2023-03-06T03:23:56.355Z,1.84
2023-03-06T03:26:28.225Z,1.76
2023-03-06T03:29:05.127Z,1.75
2023-03-06T03:31:33.047Z,1.77
2023-03-06T03:34:02.445Z,1.77
2023-03-06T03:36:33.372Z,1.76
2023-03-06T03:39:01.058Z,1.75
2023-03-06T03:41:28.727Z,1.72
2023-03-06T03:43:56.503Z,1.70
2023-03-06T03:46:26.324Z,1.70
2023-03-06T03:48:55.884Z,1.64
2023-03-06T03:51:23.506Z,1.61
2023-03-06T03:53:56.777Z,1.60
2023-03-06T03:56:26.197Z,1.58
2023-03-06T03:59:02.921Z,1.55
2023-03-06T04:01:39.129Z,1.54
2023-03-06T04:04:07.405Z,1.50
2023-03-06T04:06:35.062Z,1.50
2023-03-06T04:09:04.550Z,1.49
2023-03-06T04:11:33.251Z,1.47
2023-03-06T04:14:01.560Z,1.46
2023-03-06T04:16:29.675Z,1.44
2023-03-06T04:18:57.224Z,1.42
2023-03-06T04:21:25.244Z,1.39
2023-03-06T04:23:52.989Z,1.40
2023-03-06T04:26:21.325Z,1.38
2023-03-06T04:28:49.268Z,1.38
2023-03-06T04:31:17.267Z,1.37
2023-03-06T04:33:44.747Z,1.36
2023-03-06T04:36:34.091Z,1.35
2023-03-06T04:39:06.613Z,1.31
2023-03-06T04:41:35.529Z,1.30
2023-03-06T04:44:03.244Z,1.29
2023-03-06T04:46:30.872Z,1.29
2023-03-06T04:48:58.693Z,1.29
2023-03-06T04:51:26.943Z,1.29
2023-03-06T04:53:54.542Z,1.30
2023-03-06T04:56:22.394Z,1.29
2023-03-06T04:58:50.263Z,1.29
2023-03-06T05:01:18.612Z,1.29
2023-03-06T05:03:46.558Z,1.29
2023-03-06T05:06:14.184Z,1.27
2023-03-06T05:08:42.246Z,1.27
2023-03-06T05:11:10.107Z,1.28
2023-03-06T05:13:37.782Z,1.30
2023-03-06T05:16:07.043Z,1.31
2023-03-06T05:18:35.710Z,1.32
2023-03-06T05:21:04.886Z,1.33
2023-03-06T05:23:36.386Z,1.34
2023-03-06T05:26:12.847Z,1.35
2023-03-06T05:28:41.482Z,1.35
2023-03-06T05:31:09.714Z,1.36
2023-03-06T05:33:37.572Z,1.37
2023-03-06T05:36:09.350Z,1.38
2023-03-06T05:38:37.260Z,1.39
2023-03-06T05:41:05.328Z,1.40
2023-03-06T05:43:32.913Z,1.41
2023-03-06T05:46:06.148Z,1.44
2023-03-06T05:48:35.950Z,1.44
2023-03-06T05:51:05.039Z,1.45
2023-03-06T05:53:33.093Z,1.46
2023-03-06T05:56:08.772Z,1.49
2023-03-06T05:58:37.496Z,1.48
2023-03-06T06:01:18.255Z,1.51
2023-03-06T06:03:46.948Z,1.50
2023-03-06T06:06:15.564Z,1.53
2023-03-06T06:08:44.122Z,1.55
2023-03-06T06:11:13.933Z,1.56
2023-03-06T06:13:41.705Z,1.57
2023-03-06T06:16:12.631Z,1.58
2023-03-06T06:18:41.416Z,1.60
2023-03-06T06:21:12.465Z,1.62
2023-03-06T06:23:41.677Z,1.64
2023-03-06T06:26:10.680Z,1.67
2023-03-06T06:28:38.547Z,1.67
2023-03-06T06:31:13.344Z,1.69
2023-03-06T06:33:41.994Z,1.69
2023-03-06T06:36:21.279Z,1.71
2023-03-06T06:38:50.054Z,1.72
2023-03-06T06:44:08.805Z,1.75
2023-03-06T06:47:20.657Z,1.76
2023-03-06T06:49:25.487Z,1.78
2023-03-06T06:51:53.344Z,1.80
2023-03-06T06:54:22.445Z,1.82
2023-03-06T06:56:50.338Z,1.83
2023-03-06T06:59:18.225Z,1.85
2023-03-06T07:01:46.083Z,1.88
2023-03-06T07:04:14.823Z,1.93
2023-03-06T07:06:43.112Z,1.95
2023-03-06T07:09:12.006Z,1.98
2023-03-06T07:11:40.829Z,1.99
2023-03-06T07:14:08.830Z,2.04
2023-03-06T07:16:36.471Z,2.04
2023-03-06T07:19:04.397Z,2.04
2023-03-06T07:21:33.734Z,2.08
2023-03-06T07:24:01.649Z,2.09
2023-03-06T07:26:31.489Z,2.11
2023-03-06T07:29:02.519Z,2.13
2023-03-06T07:31:30.390Z,2.17
2023-03-06T07:33:58.088Z,2.20
2023-03-06T07:36:27.995Z,2.24
2023-03-06T07:38:55.692Z,2.26
2023-03-06T07:41:23.517Z,2.31
2023-03-06T07:43:51.299Z,2.36
2023-03-06T07:46:19.479Z,2.40
2023-03-06T07:48:47.124Z,2.43
2023-03-06T07:51:21.580Z,2.48
2023-03-06T07:53:50.308Z,2.51
2023-03-06T07:56:17.972Z,2.55
2023-03-06T07:58:47.705Z,2.59
2023-03-06T08:01:19.915Z,2.64
2023-03-06T08:03:49.942Z,2.69
2023-03-06T08:06:24.962Z,2.76
2023-03-06T08:08:55.566Z,2.83
2023-03-06T08:11:27.103Z,2.91
2023-03-06T08:13:58.151Z,3.00
2023-03-06T08:16:30.084Z,3.06
2023-03-06T08:18:58.561Z,3.10
2023-03-06T08:21:28.200Z,3.16
2023-03-06T08:23:56.160Z,3.23
2023-03-06T08:26:28.496Z,3.28
2023-03-06T08:29:00.201Z,3.32
2023-03-06T08:31:32.570Z,3.30
2023-03-06T08:34:02.722Z,3.29
2023-03-06T08:36:31.684Z,3.34
2023-03-06T08:38:59.764Z,3.41
2023-03-06T08:41:28.213Z,3.50
2023-03-06T08:43:58.856Z,3.57
2023-03-06T08:46:29.342Z,3.62
2023-03-06T08:48:57.374Z,3.70
2023-03-06T08:51:26.721Z,3.75
2023-03-06T08:53:55.703Z,3.81
2023-03-06T08:56:33.925Z,3.89
2023-03-06T08:59:04.931Z,3.95
2023-03-06T09:01:41.425Z,4.02
2023-03-06T09:04:11.814Z,4.14
2023-03-06T09:06:43.265Z,4.27
2023-03-06T09:09:12.613Z,4.35
2023-03-06T09:11:40.602Z,4.43
2023-03-06T09:14:08.424Z,4.53
2023-03-06T09:16:36.218Z,4.61
2023-03-06T09:19:11.320Z,4.73
2023-03-06T09:21:39.330Z,4.90
2023-03-06T09:24:07.299Z,5.04
2023-03-06T09:26:51.723Z,5.11
2023-03-06T09:29:19.687Z,5.14
2023-03-06T09:31:47.524Z,5.12
2023-03-06T09:34:15.508Z,5.06
2023-03-06T09:36:56.559Z,5.03
2023-03-06T09:39:27.186Z,5.10
2023-03-06T09:41:58.232Z,5.11
2023-03-06T09:44:30.671Z,5.16
2023-03-06T09:47:33.848Z,5.20
2023-03-06T09:50:29.454Z,5.32
2023-03-06T09:53:34.175Z,5.49
2023-03-06T09:56:20.273Z,5.65
2023-03-06T09:58:58.016Z,5.72
2023-03-06T10:01:36.563Z,5.79
2023-03-06T10:04:37.962Z,5.93
2023-03-06T10:07:23.234Z,6.06
2023-03-06T10:10:04.538Z,6.17
2023-03-06T10:12:52.028Z,6.26
2023-03-06T10:15:27.167Z,6.33
2023-03-06T10:17:56.576Z,6.38
2023-03-06T10:20:36.855Z,6.49
2023-03-06T10:23:54.612Z,6.60
2023-03-06T10:26:35.915Z,6.68
2023-03-06T10:29:20.169Z,6.71
2023-03-06T10:32:03.038Z,6.62
2023-03-06T10:34:38.530Z,6.56
2023-03-06T10:37:19.634Z,6.59
2023-03-06T10:39:55.341Z,6.69
2023-03-06T10:42:25.002Z,6.88
2023-03-06T10:45:12.747Z,7.10
2023-03-06T10:47:42.236Z,7.20
2023-03-06T10:50:30.583Z,7.32
2023-03-06T10:53:16.080Z,7.42
2023-03-06T10:55:58.742Z,7.45
2023-03-06T10:58:30.423Z,7.53
2023-03-06T11:01:03.119Z,7.58
2023-03-06T11:03:31.328Z,7.52
2023-03-06T11:06:13.733Z,7.42
2023-03-06T11:08:44.380Z,7.36
2023-03-06T11:11:36.447Z,7.30
2023-03-06T11:14:18.997Z,7.29
2023-03-06T11:16:53.428Z,7.40
2023-03-06T11:19:27.340Z,7.53
2023-03-06T11:22:06.766Z,7.58
2023-03-06T11:24:44.577Z,7.59
2023-03-06T11:27:35.132Z,7.58
2023-03-06T11:30:19.062Z,7.55
2023-03-06T11:32:56.502Z,7.51
2023-03-06T11:35:35.354Z,7.50
2023-03-06T11:38:17.159Z,7.51
2023-03-06T11:41:01.149Z,7.53
2023-03-06T11:44:00.706Z,7.55
2023-03-06T11:46:40.975Z,7.56
2023-03-06T11:49:25.980Z,7.55
2023-03-06T11:52:00.600Z,7.58
2023-03-06T11:54:28.615Z,7.60
2023-03-06T11:57:07.004Z,7.59
2023-03-06T12:00:10.983Z,7.50
2023-03-06T12:03:05.593Z,7.38
2023-03-06T12:06:08.511Z,7.33
2023-03-06T12:08:39.972Z,7.28
2023-03-06T12:11:24.275Z,7.27
2023-03-06T12:14:22.298Z,7.24
2023-03-06T12:17:00.609Z,7.19
2023-03-06T12:19:45.517Z,7.16
2023-03-06T12:22:39.073Z,7.21
2023-03-06T12:25:22.929Z,7.36
2023-03-06T12:28:05.748Z,7.53
2023-03-06T12:30:40.851Z,7.59
2023-03-06T12:33:23.263Z,7.57
2023-03-06T12:36:36.472Z,7.62
2023-03-06T12:39:46.867Z,7.84
2023-03-06T12:42:42.376Z,7.99
2023-03-06T12:45:37.145Z,8.13
2023-03-06T12:48:17.270Z,8.12
2023-03-06T12:50:45.944Z,8.13
2023-03-06T12:53:28.566Z,8.27
2023-03-06T12:56:00.170Z,8.26
2023-03-06T12:58:30.507Z,8.19
2023-03-06T13:01:14.503Z,8.19
2023-03-06T13:04:32.939Z,8.20
2023-03-06T13:07:20.052Z,8.14
2023-03-06T13:10:26.527Z,8.11
2023-03-06T13:12:57.356Z,8.09
2023-03-06T13:15:35.732Z,8.04
2023-03-06T13:18:21.845Z,8.04
2023-03-06T13:20:52.405Z,8.11
2023-03-06T13:23:29.024Z,8.23
2023-03-06T13:26:08.357Z,8.29
2023-03-06T13:28:48.649Z,8.33
2023-03-06T13:31:36.354Z,8.27
2023-03-06T13:34:42.419Z,8.13
2023-03-06T13:37:14.013Z,8.04
2023-03-06T13:40:01.628Z,7.99
2023-03-06T13:42:32.934Z,7.91
2023-03-06T13:45:23.965Z,7.87
2023-03-06T13:50:46.824Z,7.75
2023-03-06T13:54:04.099Z,7.71
2023-03-06T13:57:20.677Z,7.68
2023-03-06T14:00:14.358Z,7.60
2023-03-06T14:03:09.413Z,7.52
2023-03-06T14:05:47.399Z,7.46
2023-03-06T14:08:20.626Z,7.42
2023-03-06T14:11:02.202Z,7.33
2023-03-06T14:13:47.074Z,7.23
2023-03-06T14:16:43.802Z,7.21
2023-03-06T14:19:19.709Z,7.21
2023-03-06T14:21:57.373Z,7.19
2023-03-06T14:24:43.704Z,7.18
2023-03-06T14:27:21.184Z,7.13
2023-03-06T14:29:49.828Z,7.07
2023-03-06T14:32:23.109Z,7.02
2023-03-06T14:34:50.882Z,7.00
2023-03-06T14:37:25.145Z,7.04
2023-03-06T14:39:55.219Z,7.08
2023-03-06T14:42:30.463Z,7.16
2023-03-06T14:45:16.080Z,7.21
2023-03-06T14:47:50.280Z,7.27
2023-03-06T14:50:30.050Z,7.34
2023-03-06T14:53:04.289Z,7.39
2023-03-06T14:55:35.905Z,7.42
2023-03-06T14:58:15.286Z,7.45
2023-03-06T15:00:54.605Z,7.42
2023-03-06T15:03:49.154Z,7.41
2023-03-06T15:06:25.482Z,7.36
2023-03-06T15:09:20.364Z,7.31
2023-03-06T15:11:55.575Z,7.26
2023-03-06T15:14:41.002Z,7.22
2023-03-06T15:17:17.564Z,7.16
2023-03-06T15:19:48.632Z,7.13
2023-03-06T15:22:38.673Z,7.13
2023-03-06T15:25:26.954Z,7.05
2023-03-06T15:27:58.927Z,7.02
2023-03-06T15:30:29.547Z,6.99
2023-03-06T15:33:18.055Z,7.04
2023-03-06T15:35:57.311Z,7.04
2023-03-06T15:38:58.413Z,7.04
2023-03-06T15:41:36.804Z,7.02
2023-03-06T15:44:15.084Z,6.97
2023-03-06T15:46:42.714Z,6.87
2023-03-06T15:49:17.988Z,6.75
2023-03-06T15:51:45.620Z,6.60
2023-03-06T15:54:13.436Z,6.47
2023-03-06T15:56:45.951Z,6.35
2023-03-06T15:59:24.920Z,6.14
2023-03-06T16:01:54.183Z,5.94
2023-03-06T16:04:21.947Z,5.80
2023-03-06T16:06:49.610Z,5.72
2023-03-06T16:09:17.373Z,5.70
2023-03-06T16:11:45.355Z,5.70
2023-03-06T16:14:21.264Z,5.71
2023-03-06T16:16:51.774Z,5.69
2023-03-06T16:19:26.455Z,5.67
2023-03-06T16:21:56.778Z,5.65
2023-03-06T16:24:26.140Z,5.68
2023-03-06T16:26:58.556Z,5.70
2023-03-06T16:29:28.465Z,5.71
2023-03-06T16:31:58.729Z,5.71
2023-03-06T16:34:26.445Z,5.70
2023-03-06T16:36:54.430Z,5.70
2023-03-06T16:39:24.444Z,5.71
2023-03-06T16:41:52.661Z,5.67
2023-03-06T16:44:21.374Z,5.67
2023-03-06T16:46:50.856Z,5.66
2023-03-06T16:49:24.492Z,5.65
2023-03-06T16:51:54.665Z,5.64
2023-03-06T16:54:26.062Z,5.63
2023-03-06T16:56:53.985Z,5.59
2023-03-06T16:59:21.628Z,5.60
2023-03-06T17:01:49.322Z,5.59
2023-03-06T17:04:17.283Z,5.59
2023-03-06T17:06:45.025Z,5.60
2023-03-06T17:09:14.287Z,5.60
2023-03-06T17:11:44.877Z,5.58
2023-03-06T17:14:13.196Z,5.55
2023-03-06T17:16:40.975Z,5.54
2023-03-06T17:19:15.180Z,5.54
2023-03-06T17:21:44.362Z,5.52
2023-03-06T17:24:12.026Z,5.49
2023-03-06T17:26:40.252Z,5.51
2023-03-06T17:29:09.286Z,5.46
2023-03-06T17:31:36.974Z,5.44
2023-03-06T17:34:04.988Z,5.42
2023-03-06T17:36:33.068Z,5.42
2023-03-06T17:39:03.007Z,5.41
2023-03-06T17:41:32.820Z,5.39
2023-03-06T17:44:01.860Z,5.37
2023-03-06T17:46:31.974Z,5.33
2023-03-06T17:48:59.860Z,5.30
2023-03-06T17:51:27.668Z,5.27
2023-03-06T17:53:55.675Z,5.23
2023-03-06T17:56:23.294Z,5.21
2023-03-06T17:58:51.147Z,5.17
2023-03-06T18:01:22.755Z,5.15
2023-03-06T18:03:51.330Z,5.12
2023-03-06T18:06:22.034Z,5.08
2023-03-06T18:08:52.705Z,5.04
2023-03-06T18:11:22.358Z,4.99
2023-03-06T18:13:51.050Z,4.97
2023-03-06T18:16:23.255Z,4.92
2023-03-06T18:18:56.284Z,4.88
2023-03-06T18:21:24.912Z,4.84
2023-03-06T18:23:52.750Z,4.83
2023-03-06T18:26:28.821Z,4.81
2023-03-06T18:29:04.601Z,4.78
2023-03-06T18:31:36.795Z,4.77
2023-03-06T18:34:11.528Z,4.74
2023-03-06T18:36:42.468Z,4.73
2023-03-06T18:39:13.432Z,4.72
2023-03-06T18:41:41.386Z,4.71
2023-03-06T18:44:09.232Z,4.71
2023-03-06T18:46:38.597Z,4.68
2023-03-06T18:49:07.295Z,4.69
2023-03-06T18:51:35.616Z,4.68
2023-03-06T18:54:05.245Z,4.66
2023-03-06T18:56:33.986Z,4.65
2023-03-06T18:59:05.848Z,4.64
2023-03-06T19:01:34.494Z,4.62
2023-03-06T19:04:04.087Z,4.61
2023-03-06T19:06:31.856Z,4.60
2023-03-06T19:09:01.464Z,4.60
2023-03-06T19:11:31.912Z,4.57
2023-03-06T19:13:59.831Z,4.57
2023-03-06T19:16:31.147Z,4.57
2023-03-06T19:19:00.000Z,4.57
2023-03-06T19:21:29.005Z,4.56
2023-03-06T19:23:57.285Z,4.54
2023-03-06T19:26:26.467Z,4.52
2023-03-06T19:28:54.231Z,4.53
2023-03-06T19:31:26.027Z,4.52
2023-03-06T19:33:56.781Z,4.51
2023-03-06T19:36:33.273Z,4.50
2023-03-06T19:39:06.057Z,4.48
2023-03-06T19:41:34.735Z,4.49
2023-03-06T19:44:03.338Z,4.49
2023-03-06T19:46:31.945Z,4.50
2023-03-06T19:49:03.343Z,4.49
2023-03-06T19:51:30.978Z,4.49
2023-03-06T19:53:58.609Z,4.47
2023-03-06T19:56:29.207Z,4.46
2023-03-06T19:58:56.965Z,4.46
2023-03-06T20:01:27.105Z,4.45
2023-03-06T20:03:59.100Z,4.44
2023-03-06T20:06:33.349Z,4.42
2023-03-06T20:09:03.843Z,4.41
2023-03-06T20:11:32.435Z,4.40
2023-03-06T20:14:03.760Z,4.41
2023-03-06T20:16:32.668Z,4.38
2023-03-06T20:19:01.710Z,4.37
2023-03-06T20:21:35.343Z,4.35
2023-03-06T20:24:07.803Z,4.31
2023-03-06T20:26:37.625Z,4.30
2023-03-06T20:29:05.376Z,4.27
2023-03-06T20:31:33.413Z,4.25
2023-03-06T20:34:01.417Z,4.20
2023-03-06T20:36:36.765Z,4.21
2023-03-06T20:39:09.784Z,4.17
2023-03-06T20:41:38.276Z,4.13
2023-03-06T20:44:14.730Z,4.12
2023-03-06T20:46:43.067Z,4.09
2023-03-06T20:49:13.055Z,4.06
2023-03-06T20:51:42.198Z,4.01
2023-03-06T20:54:15.920Z,3.99
2023-03-06T20:56:47.775Z,3.96
2023-03-06T20:59:15.732Z,3.96
2023-03-06T21:01:47.874Z,3.95
2023-03-06T21:04:16.412Z,3.93
2023-03-06T21:06:46.839Z,3.92
2023-03-06T21:09:17.297Z,3.89
2023-03-06T21:11:45.854Z,3.87
2023-03-06T21:14:14.291Z,3.86
2023-03-06T21:16:42.538Z,3.86
2023-03-06T21:19:10.791Z,3.87
2023-03-06T21:21:38.664Z,3.85
2023-03-06T21:24:06.673Z,3.83
2023-03-06T21:26:34.300Z,3.83
2023-03-06T21:29:03.060Z,3.83
2023-03-06T21:31:31.838Z,3.83
2023-03-06T21:33:59.845Z,3.84
2023-03-06T21:36:28.260Z,3.83
2023-03-06T21:38:55.953Z,3.84
2023-03-06T21:41:30.369Z,3.86
2023-03-06T21:44:01.514Z,3.87
2023-03-06T21:46:30.257Z,3.87
2023-03-06T21:48:58.769Z,3.90
2023-03-06T21:51:27.002Z,3.92
2023-03-06T21:53:55.881Z,3.94
2023-03-06T21:56:27.836Z,3.97
2023-03-06T21:58:58.050Z,3.99
2023-03-06T22:01:28.912Z,4.00
2023-03-06T22:03:58.859Z,4.02
2023-03-06T22:06:29.261Z,4.05
2023-03-06T22:08:59.583Z,4.07
2023-03-06T22:11:31.332Z,4.10
2023-03-06T22:13:59.235Z,4.11
2023-03-06T22:16:26.932Z,4.13
2023-03-06T22:18:54.677Z,4.15
2023-03-06T22:21:23.404Z,4.18
2023-03-06T22:24:00.513Z,4.21
2023-03-06T22:26:29.788Z,4.23
2023-03-06T22:28:57.695Z,4.25
2023-03-06T22:31:29.033Z,4.26
2023-03-06T22:34:00.790Z,4.27
2023-03-06T22:36:32.973Z,4.25
2023-03-06T22:39:03.194Z,4.27
2023-03-06T22:41:31.517Z,4.30
2023-03-06T22:44:01.842Z,4.35
2023-03-06T22:46:31.774Z,4.37
2023-03-06T22:49:00.983Z,4.38
2023-03-06T22:51:29.684Z,4.41
2023-03-06T22:53:58.273Z,4.43
2023-03-06T22:56:25.915Z,4.43
2023-03-06T22:58:53.627Z,4.45
2023-03-06T23:01:31.289Z,4.47
2023-03-06T23:04:02.877Z,4.48
2023-03-06T23:06:37.587Z,4.48
2023-03-06T23:09:12.070Z,4.49
2023-03-06T23:11:58.875Z,4.50
2023-03-06T23:14:49.538Z,4.52
2023-03-06T23:17:36.480Z,4.53
2023-03-06T23:20:23.186Z,4.55
2023-03-06T23:23:10.132Z,4.56
2023-03-06T23:25:44.395Z,4.57
2023-03-06T23:28:12.763Z,4.59
2023-03-06T23:30:41.586Z,4.62
2023-03-06T23:33:10.504Z,4.62
2023-03-06T23:35:39.129Z,4.60
2023-03-06T23:38:07.365Z,4.63
2023-03-06T23:40:36.732Z,4.62
2023-03-06T23:43:04.848Z,4.65
2023-03-06T23:45:32.698Z,4.66
2023-03-06T23:48:00.399Z,4.66
2023-03-06T23:50:28.129Z,4.66
2023-03-06T23:52:55.954Z,4.68
2023-03-06T23:55:23.574Z,4.67
2023-03-06T23:57:51.307Z,4.68
